Whitewater Creek, Colorado (Grand Mesa) Weather observations

Data are for observation ending at time listed.
 Day   Time    Ave.   Ave.  Ave.  Vector   Max.    Total    Solar   Ave.  
  of    of     Air    Rel.  Wind   Wind    Wind   Precip.   Rad.    Soil  
Year   Day     Temp.  Hum.  Speed  Dir.    Gust                     Temp. 
2015   (MST)    F      %     mph   deg.    mph      in.     W/m2     F   
------------------------------------------------------------------------------
 145    1:40   30.6    98    3.0     1      6.1    99999.00   99999    99999.0
 145    1:50   30.8    98    2.3   346      3.5    99999.00   99999    99999.0
 145    2:00   30.9    98    2.2   346      2.2    99999.00   99999    99999.0
 145    2:10   30.9    98    2.2   353      2.2    99999.00   99999    99999.0
 145    2:20   31.0    98    2.2   353      2.2    99999.00   99999    99999.0
 145    2:30   30.9    98    2.2   350      2.2    99999.00   99999    99999.0
 145    2:40   31.3    98    2.2   285      2.2    99999.00   99999    99999.0
 145    2:50   31.4    98    2.2   283      2.2    99999.00   99999    99999.0
 145    3:00   31.4    98    2.7   312      4.8    99999.00   99999    99999.0
 145    3:10   31.3    98    2.3   298      4.8    99999.00   99999    99999.0
 145    3:20   31.1    98    3.4   295      6.1    99999.00   99999    99999.0
 145    3:30   31.1    98    2.4   286      3.5    99999.00   99999    99999.0
 145    3:40   31.1    98    2.3   298      3.5    99999.00   99999    99999.0
 145    3:50   31.2    98    3.0   293      6.1    99999.00   99999    99999.0
 145    4:00   31.1    98    2.5   293      3.5    99999.00   99999    99999.0
 145    4:10   30.9    98    3.4   289      4.8    99999.00   99999    99999.0
 145    4:20   30.8    98    2.8   291      4.8    99999.00   99999    99999.0
 145    4:30   30.7    98    2.3   285      3.5    99999.00   99999    99999.0
 145    4:40   30.7    98    2.2   273      2.2    99999.00   99999    99999.0
 145    4:50   31.0    98    2.8   266      6.1    99999.00   99999    99999.0
 145    5:00   31.1    98    3.1   273      4.8    99999.00   99999    99999.0
 145    5:10   31.1    98    2.6   270      4.8    99999.00   99999    99999.0
 145    5:20   31.2    98    2.3   266      3.5    99999.00   99999    99999.0
 145    5:30   31.2    98    2.2   257      2.2    99999.00   99999    99999.0
 145    5:40   31.2    98    2.2   256      2.2    99999.00   99999    99999.0
 145    5:50   30.9    98    2.2   256      2.2    99999.00   99999    99999.0
 145    6:00   30.7    98    2.2   256      2.2    99999.00   99999    99999.0
 145    6:10   30.6    98    2.2   256      2.2    99999.00   99999    99999.0
 145    6:20   30.5    98    2.2   256      2.2    99999.00   99999    99999.0
 145    6:30   30.6    98    2.2   256      2.2    99999.00   99999    99999.0
 145    6:40   30.7    98    2.3   255      3.5    99999.00   99999    99999.0
 145    6:50   30.8    98    2.2   198      2.2    99999.00   99999    99999.0
 145    7:00   31.1    98    2.3   211      3.5    99999.00   99999    99999.0
 145    7:10   31.4    98    2.5   218      3.5    99999.00   99999    99999.0
 145    7:20   31.7    98    2.2   219      2.2    99999.00   99999    99999.0
 145    7:30   31.9    98    2.3   244      3.5    99999.00   99999    99999.0
 145    7:40   31.9    98    2.2   257      2.2    99999.00   99999    99999.0
 145    7:50   31.8    98    2.2   256      2.2    99999.00   99999    99999.0
 145    8:00   32.0    98    2.2   259      2.2    99999.00   99999    99999.0
 145    8:10   32.3    98    2.2   265      2.2    99999.00   99999    99999.0
 145    8:20   32.4    98    2.2   263      2.2    99999.00   99999    99999.0
 145    8:30   32.6    98    2.2   260      2.2    99999.00   99999    99999.0
 145    8:40   32.6    98    2.2   260      2.2    99999.00   99999    99999.0
 145    8:50   33.1    97    2.2   259      2.2    99999.00   99999    99999.0
 145    9:00   34.0    94    4.0   254      9.9    99999.00   99999    99999.0
 145    9:10   34.1    92    4.0   264      6.1    99999.00   99999    99999.0
 145    9:20   33.8    92    3.2   263      7.4    99999.00   99999    99999.0
 145    9:30   33.8    92    2.7   261      6.1    99999.00   99999    99999.0
 145    9:40   34.1    91    5.0   271      7.4    99999.00   99999    99999.0
 145    9:50   33.6    92    5.9   262     11.2    99999.00   99999    99999.0
 145   10:00   33.7    93    6.1   253      8.6    99999.00   99999    99999.0
 145   10:10   33.7    93    6.5   264     11.2    99999.00   99999    99999.0
 145   10:20   35.7    86    5.4   261      7.4    99999.00   99999    99999.0
 145   10:30   35.8    86    6.5   266      8.6    99999.00   99999    99999.0
 145   10:40   36.2    84    7.5   261     11.2    99999.00   99999    99999.0
 145   10:50   36.8    82    7.7   265     12.5    99999.00   99999    99999.0
 145   11:00   35.3    86    7.6   274     11.2    99999.00   99999    99999.0
 145   11:10   34.9    88    7.2   269     11.2    99999.00   99999    99999.0
 145   11:20   35.8    86    5.9   274      9.9    99999.00   99999    99999.0
 145   11:30   36.5    83    5.9   272      8.6    99999.00   99999    99999.0
 145   11:40   37.1    81    4.9   275      8.6    99999.00   99999    99999.0
 145   11:50   37.7    79    4.8   278      7.4    99999.00   99999    99999.0
 145   12:00   37.1    81    5.5   278      8.6    99999.00   99999    99999.0
 145   12:10   38.7    76    5.4   275      9.9    99999.00   99999    99999.0
 145   12:20   38.6    75    5.9   265      9.9    99999.00   99999    99999.0
 145   12:30   39.6    72    5.0   278      8.6    99999.00   99999    99999.0
 145   12:40   40.0    70    5.9   268      9.9    99999.00   99999    99999.0
 145   12:50   40.6    71    4.1   286      8.6    99999.00   99999    99999.0
 145   13:00   42.7    65    3.4   274      7.4    99999.00   99999    99999.0
 145   13:10   41.1    68    4.4   266      8.6    99999.00   99999    99999.0
 145   13:20   41.1    65    5.7   254      9.9    99999.00   99999    99999.0
 145   13:30   38.6    77    4.0   241      9.9    99999.00   99999    99999.0
 145   13:40   40.4    73    2.7   233      4.8    99999.00   99999    99999.0
 145   13:50   40.1    73    3.6   255      6.1    99999.00   99999    99999.0
 145   14:00   39.9    75    2.8   244      6.1    99999.00   99999    99999.0
 145   14:10   40.2    72    2.5   257      4.8    99999.00   99999    99999.0
 145   14:20   41.3    70    2.2   239      2.2    99999.00   99999    99999.0
 145   14:30   45.7    59    2.2   230      2.2    99999.00   99999    99999.0
 145   14:40   45.4    61    2.2   242      2.2    99999.00   99999    99999.0
 145   14:50   45.0    63    3.7   229      6.1    99999.00   99999    99999.0
 145   15:00   44.6    63    3.7   233      6.1    99999.00   99999    99999.0
 145   15:10   42.3    71    5.3   229      8.6    99999.00   99999    99999.0
 145   15:20   41.9    71    4.2   244      8.6    99999.00   99999    99999.0
 145   15:30   40.3    78    5.4   252      7.4    99999.00   99999    99999.0
 145   15:40   40.3    76    4.6   253      8.6    99999.00   99999    99999.0
 145   15:50   41.0    75    4.0   249      8.6    99999.00   99999    99999.0
 145   16:00   41.4    69    4.4   278      8.6    99999.00   99999    99999.0
 145   16:10   42.3    69    3.8   263      8.6    99999.00   99999    99999.0
 145   16:20   41.7    63    4.7   285      7.4    99999.00   99999    99999.0
 145   16:30   41.6    66    5.5   271      9.9    99999.00   99999    99999.0
 145   16:40   42.2    65    4.0   277      8.6    99999.00   99999    99999.0
 145   16:50   43.6    58    4.9   301      8.6    99999.00   99999    99999.0
 145   17:00   43.2    60    5.6   291     11.2    99999.00   99999    99999.0
 145   17:10   43.3    60    5.4   288      8.6    99999.00   99999    99999.0
 145   17:20   43.4    59    5.5   262      9.9    99999.00   99999    99999.0
 145   17:30   42.7    61    5.1   251     11.2    99999.00   99999    99999.0
 145   17:40   42.8    69    6.9   250     11.2    99999.00   99999    99999.0
 145   17:50   42.8    69    5.4   254      8.6    99999.00   99999    99999.0
 145   18:00   41.3    71    5.2   274      8.6    99999.00   99999    99999.0
 145   18:10   44.1    67    3.8   264      7.4    99999.00   99999    99999.0
 145   18:20   43.8    60    4.8   279      8.6    99999.00   99999    99999.0
 145   18:30   42.7    65    6.8   279     11.2    99999.00   99999    99999.0
 145   18:40   41.1    72    5.8   266      9.9    99999.00   99999    99999.0
 145   18:50   42.0    70    7.6   265     12.5    99999.00   99999    99999.0
 145   19:00   41.3    71    6.6   258      9.9    99999.00   99999    99999.0
 145   19:10   41.8    74    5.2   269      8.6    99999.00   99999    99999.0
 145   19:20   40.9    74    6.1   268      9.9    99999.00   99999    99999.0
 145   19:30   40.1    73    6.3   269      9.9    99999.00   99999    99999.0
 145   19:40   40.3    72    6.0   264      8.6    99999.00   99999    99999.0
 145   19:50   40.5    69    6.0   268      8.6    99999.00   99999    99999.0
 145   20:00   41.0    69    5.7   272      8.6    99999.00   99999    99999.0
 145   20:10   40.6    69    4.4   270      8.6    99999.00   99999    99999.0
 145   20:20   39.4    72    4.8   262      8.6    99999.00   99999    99999.0
 145   20:30   38.9    72    3.7   270      7.4    99999.00   99999    99999.0
 145   20:40   38.1    76    2.2   256      2.2    99999.00   99999    99999.0
 145   20:50   37.5    80    2.2   230      2.2    99999.00   99999    99999.0
 145   21:00   36.9    80    2.4   256      4.8    99999.00   99999    99999.0
 145   21:10   36.8    82    2.5   282      4.8    99999.00   99999    99999.0
 145   21:20   36.5    82    2.2   284      2.2    99999.00   99999    99999.0
 145   21:30   36.3    82    2.2   284      2.2    99999.00   99999    99999.0
 145   21:40   35.7    85    2.2   284      2.2    99999.00   99999    99999.0
 145   21:50   35.4    85    2.2   284      2.2    99999.00   99999    99999.0
 145   22:00   35.2    86    2.2   284      2.2    99999.00   99999    99999.0
 145   22:10   34.3    89    2.2   284      2.2    99999.00   99999    99999.0
 145   22:20   33.9    89    2.2   284      2.2    99999.00   99999    99999.0
 145   22:30   33.6    88    2.2   284      2.2    99999.00   99999    99999.0
 145   22:40   33.7    89    2.2   284      2.2    99999.00   99999    99999.0
 145   22:50   33.8    88    2.2   284      2.2    99999.00   99999    99999.0
 145   23:00   33.5    88    2.2   274      2.2    99999.00   99999    99999.0
 145   23:10   32.9    91    2.2   271      2.2    99999.00   99999    99999.0
 145   23:20   31.8    93    2.2   271      2.2    99999.00   99999    99999.0
 145   23:30   32.2    94    2.2   271      2.2    99999.00   99999    99999.0
 145   23:40   32.5    92    2.2   271      2.2    99999.00   99999    99999.0
 145   23:50   32.7    91    2.2   271      2.2    99999.00   99999    99999.0
 146    0:00   32.9    90    2.2   271      2.2    99999.00   99999    99999.0
 146    0:10   31.6    94    2.2   271      2.2    99999.00   99999    99999.0
 146    0:20   31.4    95    2.2   271      2.2    99999.00   99999    99999.0
 146    0:30   31.8    95    2.2   271      2.2    99999.00   99999    99999.0
 146    0:40   31.5    94    2.2   271      2.2    99999.00   99999    99999.0
 146    0:50   31.1    95    2.2   271      2.2    99999.00   99999    99999.0
 146    1:00   31.6    95    2.2   271      2.2    99999.00   99999    99999.0
 146    1:10   31.3    94    2.2   271      2.2    99999.00   99999    99999.0
 146    1:20   30.6    96    2.2   271      2.2    99999.00   99999    99999.0
 146    1:30   31.5    96    2.2   271      2.2    99999.00   99999    99999.0

Return to Whitewater Creek, Colorado graphs page.


Western Regional Climate Center,wrcc@dri.edu